KNIP/NIP METAR and TAF weather

Enter ICAO airport designator
Station Type Date Time Source
KNIP METAR 2021/07/30 22:53 UTC NOAA

KNIP 302253Z 20014G18KT 10SM SCT055 SCT250 32/25 A2998 RMK AO2 SLP146 T03220250


Station Type Date Time Source
KNIP Decoded METAR 2021/07/30 22:53 UTC NOAA

JACKSONVILLE NAVAL AIR STN, FL, United States (KNIP) 30-14N 81-40W 8M
Jul 30, 2021 - 06:53 PM EDT / 2021.07.30 2253 UTC
Wind: from the SSW (200 degrees) at 16 MPH (14 KT) gusting to 21 MPH (18 KT):0
Visibility: 10 mile(s):0
Sky conditions: partly cloudy
Temperature: 90.0 F (32.2 C)
Heat index: 102.7 F (39.3 C):1
Dew Point: 77.0 F (25.0 C)
Relative Humidity: 65%
Pressure (altimeter): 29.98 in. Hg (1015 hPa)
ob: KNIP 302253Z 20014G18KT 10SM SCT055 SCT250 32/25 A2998 RMK AO2 SLP146 T03220250
cycle: 23

Station Type Date Time Source
KNIP TAF 2021/07/30 23:59 UTC NOAA

TAF KNIP 3023/3123 20008KT 9999 FEW040 FEW100 SCT250 QNH2996INS
FM310100 22006KT 9999 FEW100 SCT250 QNH2997INS
FM311200 23008KT 9999 FEW035 FEW120 SCT250 QNH2993INS T25/3111Z T35/3120Z FN20083

Example: see airport list